XTV977 YMAV-YWSL
Flight info
| Callsign | XTV977 |
|---|---|
| Flight time | 1h 21m |
| Altitude | 3500 |
| Route | WBER DCT KEVEK DCT YMEN DCT 3745S14504E DCT DSN DCT 3749S14513E 3757S14512E DCT GMH DCT NRW DCT DRN DCT YLTV DCT FYN |
| Aircraft | A109/L-SFG/C |
Departure
| Time | 2026-04-17 08:44 |
|---|---|
| Airport | Melbourne Avalon International Airport (YMAV) |
Arrival
| Time | 2026-04-17 10:06 |
|---|---|
| Airport | West Sale Airport (YWSL) |
| Time | Latitude | Longitude | Altitude | Speed | Heading |
|---|---|---|---|---|---|
| 2026-04-17 08:30 | -38.02936 | 144.47511 | 40 ft | 0 kts | 188° |
| 2026-04-17 08:42 | -38.02945 | 144.47507 | 41 ft | 2 kts | 182° |
| 2026-04-17 08:42 | -38.02963 | 144.47498 | 42 ft | 4 kts | 262° |
| 2026-04-17 08:43 | -38.02956 | 144.47452 | 42 ft | 4 kts | 284° |
| 2026-04-17 08:43 | -38.02942 | 144.47407 | 42 ft | 6 kts | 284° |
| 2026-04-17 08:43 | -38.02899 | 144.47330 | 86 ft | 22 kts | 297° |
| 2026-04-17 08:43 | -38.02775 | 144.47012 | 291 ft | 61 kts | 255° |
| 2026-04-17 08:44 | -38.03287 | 144.46951 | 548 ft | 99 kts | 148° |
| 2026-04-17 08:44 | -38.03467 | 144.47818 | 854 ft | 116 kts | 79° |
| 2026-04-17 08:44 | -38.03117 | 144.48862 | 892 ft | 138 kts | 60° |
| 2026-04-17 08:44 | -38.02630 | 144.49953 | 975 ft | 145 kts | 58° |
| 2026-04-17 08:45 | -38.02091 | 144.51073 | 970 ft | 153 kts | 57° |
| 2026-04-17 08:45 | -38.01565 | 144.52190 | 1113 ft | 149 kts | 59° |
| 2026-04-17 08:45 | -38.01012 | 144.53369 | 1028 ft | 160 kts | 57° |
| 2026-04-17 08:45 | -38.00336 | 144.54526 | 930 ft | 165 kts | 47° |
| 2026-04-17 08:46 | -37.99569 | 144.55539 | 1080 ft | 154 kts | 44° |
| 2026-04-17 08:46 | -37.98853 | 144.56502 | 1192 ft | 151 kts | 47° |
| 2026-04-17 08:46 | -37.98135 | 144.57542 | 1144 ft | 159 kts | 47° |
| 2026-04-17 08:46 | -37.97401 | 144.58575 | 1160 ft | 159 kts | 47° |
| 2026-04-17 08:47 | -37.96630 | 144.59634 | 1063 ft | 166 kts | 42° |
| 2026-04-17 08:47 | -37.95786 | 144.60629 | 1008 ft | 166 kts | 41° |
| 2026-04-17 08:47 | -37.94969 | 144.61633 | 1029 ft | 163 kts | 43° |
| 2026-04-17 08:47 | -37.94179 | 144.62625 | 1121 ft | 156 kts | 44° |
| 2026-04-17 08:48 | -37.93446 | 144.63615 | 1175 ft | 156 kts | 47° |
| 2026-04-17 08:48 | -37.92687 | 144.64648 | 1105 ft | 161 kts | 45° |
| 2026-04-17 08:48 | -37.91923 | 144.65672 | 1235 ft | 150 kts | 46° |
| 2026-04-17 08:48 | -37.91257 | 144.66667 | 1312 ft | 152 kts | 51° |
| 2026-04-17 08:49 | -37.90634 | 144.67799 | 1257 ft | 158 kts | 55° |
| 2026-04-17 08:49 | -37.90002 | 144.68980 | 1198 ft | 163 kts | 54° |
| 2026-04-17 08:49 | -37.89360 | 144.70085 | 1111 ft | 166 kts | 48° |
| 2026-04-17 08:49 | -37.88607 | 144.71234 | 995 ft | 170 kts | 49° |
| 2026-04-17 08:50 | -37.87824 | 144.72317 | 1001 ft | 162 kts | 43° |
| 2026-04-17 08:50 | -37.87078 | 144.73312 | 1175 ft | 152 kts | 48° |
| 2026-04-17 08:50 | -37.86422 | 144.74315 | 1379 ft | 145 kts | 51° |
| 2026-04-17 08:50 | -37.85782 | 144.75372 | 1351 ft | 154 kts | 51° |
| 2026-04-17 08:51 | -37.85111 | 144.76466 | 1263 ft | 162 kts | 51° |
| 2026-04-17 08:51 | -37.84420 | 144.77634 | 1146 ft | 168 kts | 52° |
| 2026-04-17 08:51 | -37.83719 | 144.78838 | 1068 ft | 168 kts | 52° |
| 2026-04-17 08:51 | -37.83004 | 144.80017 | 930 ft | 170 kts | 49° |
| 2026-04-17 08:52 | -37.82258 | 144.81161 | 892 ft | 168 kts | 48° |
| 2026-04-17 08:52 | -37.81531 | 144.82213 | 1095 ft | 152 kts | 48° |
| 2026-04-17 08:52 | -37.80812 | 144.83275 | 948 ft | 162 kts | 45° |
| 2026-04-17 08:52 | -37.79969 | 144.84244 | 894 ft | 162 kts | 35° |
| 2026-04-17 08:53 | -37.79055 | 144.85046 | 902 ft | 159 kts | 31° |
| 2026-04-17 08:53 | -37.78169 | 144.85815 | 1101 ft | 147 kts | 33° |
| 2026-04-17 08:53 | -37.77355 | 144.86519 | 1316 ft | 139 kts | 32° |
| 2026-04-17 08:53 | -37.76551 | 144.87236 | 1288 ft | 143 kts | 31° |
| 2026-04-17 08:54 | -37.75713 | 144.87918 | 1064 ft | 139 kts | 28° |
| 2026-04-17 08:54 | -37.74985 | 144.88580 | 983 ft | 120 kts | 37° |
| 2026-04-17 08:54 | -37.74406 | 144.89272 | 870 ft | 113 kts | 47° |
| 2026-04-17 08:54 | -37.73957 | 144.90053 | 664 ft | 103 kts | 55° |
| 2026-04-17 08:55 | -37.73564 | 144.90753 | 464 ft | 96 kts | 45° |
| 2026-04-17 08:55 | -37.73202 | 144.91278 | 475 ft | 56 kts | 353° |
| 2026-04-17 08:55 | -37.73093 | 144.90988 | 322 ft | 46 kts | 274° |
| 2026-04-17 08:55 | -37.73109 | 144.90709 | 271 ft | 10 kts | 279° |
| 2026-04-17 08:56 | -37.73105 | 144.90625 | 280 ft | 15 kts | 271° |
| 2026-04-17 08:56 | -37.73102 | 144.90427 | 327 ft | 30 kts | 270° |
| 2026-04-17 08:56 | -37.72959 | 144.90201 | 329 ft | 48 kts | 8° |
| 2026-04-17 08:56 | -37.72681 | 144.90299 | 333 ft | 27 kts | 345° |
| 2026-04-17 08:57 | -37.72604 | 144.90302 | 279 ft | 0 kts | 298° |
| 2026-04-17 09:11 | -37.72603 | 144.90302 | 280 ft | 0 kts | 295° |
| 2026-04-17 09:11 | -37.72601 | 144.90292 | 280 ft | 0 kts | 284° |
| 2026-04-17 09:11 | -37.72599 | 144.90286 | 283 ft | 4 kts | 284° |
| 2026-04-17 09:11 | -37.72687 | 144.90367 | 416 ft | 40 kts | 126° |
| 2026-04-17 09:12 | -37.72809 | 144.90776 | 700 ft | 64 kts | 121° |
| 2026-04-17 09:12 | -37.73007 | 144.91353 | 937 ft | 78 kts | 115° |
| 2026-04-17 09:12 | -37.73097 | 144.92097 | 1110 ft | 90 kts | 108° |
| 2026-04-17 09:12 | -37.73231 | 144.92896 | 1278 ft | 97 kts | 111° |
| 2026-04-17 09:13 | -37.73390 | 144.93751 | 1366 ft | 103 kts | 110° |
| 2026-04-17 09:13 | -37.73555 | 144.94661 | 1407 ft | 108 kts | 110° |
| 2026-04-17 09:13 | -37.73714 | 144.95605 | 1425 ft | 113 kts | 105° |
| 2026-04-17 09:13 | -37.73687 | 144.96631 | 1437 ft | 119 kts | 92° |
| 2026-04-17 09:14 | -37.73617 | 144.97682 | 1440 ft | 122 kts | 92° |
| 2026-04-17 09:14 | -37.73544 | 144.98753 | 1442 ft | 123 kts | 92° |
| 2026-04-17 09:14 | -37.73474 | 144.99838 | 1445 ft | 124 kts | 92° |
| 2026-04-17 09:14 | -37.73408 | 145.00946 | 1463 ft | 125 kts | 92° |
| 2026-04-17 09:15 | -37.73348 | 145.02040 | 1488 ft | 126 kts | 92° |
| 2026-04-17 09:15 | -37.73304 | 145.03145 | 1510 ft | 125 kts | 99° |
| 2026-04-17 09:15 | -37.73373 | 145.04231 | 1540 ft | 124 kts | 103° |
| 2026-04-17 09:15 | -37.73454 | 145.05316 | 1569 ft | 124 kts | 103° |
| 2026-04-17 09:16 | -37.73536 | 145.06404 | 1602 ft | 123 kts | 103° |
| 2026-04-17 09:16 | -37.73798 | 145.07400 | 1633 ft | 119 kts | 121° |
| 2026-04-17 09:16 | -37.74144 | 145.08345 | 1669 ft | 119 kts | 123° |
| 2026-04-17 09:16 | -37.74490 | 145.09288 | 1611 ft | 119 kts | 122° |
| 2026-04-17 09:17 | -37.74837 | 145.10234 | 1537 ft | 119 kts | 123° |
| 2026-04-17 09:17 | -37.75194 | 145.11186 | 1496 ft | 118 kts | 128° |
| 2026-04-17 09:17 | -37.75686 | 145.11987 | 1483 ft | 114 kts | 137° |
| 2026-04-17 09:17 | -37.76209 | 145.12753 | 1478 ft | 114 kts | 138° |
| 2026-04-17 09:18 | -37.76728 | 145.13509 | 1477 ft | 114 kts | 138° |
| 2026-04-17 09:18 | -37.77250 | 145.14264 | 1474 ft | 114 kts | 138° |
| 2026-04-17 09:18 | -37.77792 | 145.14975 | 1474 ft | 113 kts | 142° |
| 2026-04-17 09:18 | -37.78358 | 145.15674 | 1476 ft | 113 kts | 142° |
| 2026-04-17 09:19 | -37.78920 | 145.16370 | 1478 ft | 113 kts | 142° |
| 2026-04-17 09:19 | -37.79480 | 145.17068 | 1477 ft | 113 kts | 142° |
| 2026-04-17 09:19 | -37.79998 | 145.17819 | 1476 ft | 117 kts | 128° |
| 2026-04-17 09:19 | -37.80307 | 145.18785 | 1480 ft | 120 kts | 117° |
| 2026-04-17 09:20 | -37.80608 | 145.19771 | 1547 ft | 119 kts | 121° |
| 2026-04-17 09:20 | -37.80977 | 145.20712 | 1707 ft | 120 kts | 130° |
| 2026-04-17 09:20 | -37.81591 | 145.21433 | 1751 ft | 125 kts | 156° |
| 2026-04-17 09:20 | -37.82443 | 145.21585 | 1740 ft | 123 kts | 185° |
| 2026-04-17 09:21 | -37.83288 | 145.21472 | 1725 ft | 122 kts | 188° |
| 2026-04-17 09:21 | -37.84153 | 145.21400 | 1719 ft | 122 kts | 186° |
| 2026-04-17 09:21 | -37.85013 | 145.21332 | 1720 ft | 123 kts | 186° |
| 2026-04-17 09:21 | -37.85875 | 145.21257 | 1718 ft | 123 kts | 186° |
| 2026-04-17 09:22 | -37.86730 | 145.21187 | 1719 ft | 123 kts | 186° |
| 2026-04-17 09:22 | -37.87598 | 145.21115 | 1716 ft | 124 kts | 186° |
| 2026-04-17 09:22 | -37.88473 | 145.21046 | 1714 ft | 124 kts | 186° |
| 2026-04-17 09:22 | -37.89350 | 145.20970 | 1708 ft | 125 kts | 186° |
| 2026-04-17 09:23 | -37.90222 | 145.20901 | 1709 ft | 124 kts | 186° |
| 2026-04-17 09:23 | -37.91085 | 145.20831 | 1704 ft | 124 kts | 186° |
| 2026-04-17 09:23 | -37.91958 | 145.20763 | 1705 ft | 124 kts | 186° |
| 2026-04-17 09:23 | -37.92812 | 145.20692 | 1721 ft | 117 kts | 186° |
| 2026-04-17 09:24 | -37.93607 | 145.20625 | 1707 ft | 113 kts | 187° |
| 2026-04-17 09:24 | -37.94395 | 145.20630 | 1704 ft | 115 kts | 175° |
| 2026-04-17 09:24 | -37.95178 | 145.20917 | 1706 ft | 118 kts | 162° |
| 2026-04-17 09:24 | -37.95931 | 145.21346 | 1705 ft | 118 kts | 162° |
| 2026-04-17 09:25 | -37.96690 | 145.21745 | 1704 ft | 118 kts | 163° |
| 2026-04-17 09:25 | -37.97453 | 145.22148 | 1704 ft | 118 kts | 162° |
| 2026-04-17 09:25 | -37.98226 | 145.22557 | 1704 ft | 119 kts | 163° |
| 2026-04-17 09:25 | -37.98991 | 145.22966 | 1705 ft | 120 kts | 162° |
| 2026-04-17 09:26 | -37.99758 | 145.23373 | 1706 ft | 119 kts | 162° |
| 2026-04-17 09:26 | -38.00522 | 145.23827 | 1701 ft | 123 kts | 149° |
| 2026-04-17 09:26 | -38.00974 | 145.24774 | 1710 ft | 132 kts | 108° |
| 2026-04-17 09:26 | -38.01081 | 145.25937 | 1707 ft | 134 kts | 103° |
| 2026-04-17 09:27 | -38.01236 | 145.27112 | 1705 ft | 134 kts | 107° |
| 2026-04-17 09:27 | -38.01402 | 145.28270 | 1706 ft | 135 kts | 106° |
| 2026-04-17 09:27 | -38.01560 | 145.29457 | 1708 ft | 135 kts | 106° |
| 2026-04-17 09:27 | -38.01744 | 145.30614 | 1706 ft | 134 kts | 109° |
| 2026-04-17 09:28 | -38.01954 | 145.31763 | 1705 ft | 133 kts | 110° |
| 2026-04-17 09:28 | -38.02171 | 145.32919 | 1705 ft | 133 kts | 110° |
| 2026-04-17 09:28 | -38.02382 | 145.34065 | 1705 ft | 133 kts | 110° |
| 2026-04-17 09:28 | -38.02596 | 145.35204 | 1705 ft | 132 kts | 110° |
| 2026-04-17 09:29 | -38.02810 | 145.36346 | 1700 ft | 132 kts | 110° |
| 2026-04-17 09:29 | -38.03020 | 145.37483 | 1700 ft | 132 kts | 109° |
| 2026-04-17 09:29 | -38.03233 | 145.38623 | 1699 ft | 133 kts | 110° |
| 2026-04-17 09:29 | -38.03444 | 145.39761 | 1701 ft | 132 kts | 109° |
| 2026-04-17 09:30 | -38.03657 | 145.40915 | 1701 ft | 133 kts | 109° |
| 2026-04-17 09:30 | -38.03868 | 145.42053 | 1702 ft | 133 kts | 109° |
| 2026-04-17 09:30 | -38.04082 | 145.43205 | 1701 ft | 133 kts | 109° |
| 2026-04-17 09:30 | -38.04290 | 145.44347 | 1702 ft | 132 kts | 109° |
| 2026-04-17 09:31 | -38.04499 | 145.45482 | 1701 ft | 132 kts | 109° |
| 2026-04-17 09:31 | -38.04710 | 145.46628 | 1702 ft | 134 kts | 109° |
| 2026-04-17 09:31 | -38.04920 | 145.47775 | 1700 ft | 134 kts | 110° |
| 2026-04-17 09:31 | -38.05133 | 145.48944 | 1703 ft | 135 kts | 109° |
| 2026-04-17 09:32 | -38.05347 | 145.50105 | 1702 ft | 135 kts | 110° |
| 2026-04-17 09:32 | -38.05559 | 145.51265 | 1700 ft | 134 kts | 110° |
| 2026-04-17 09:32 | -38.05734 | 145.52212 | 1701 ft | 133 kts | 110° |
| 2026-04-17 09:32 | -38.05947 | 145.53349 | 1701 ft | 133 kts | 109° |
| 2026-04-17 09:33 | -38.06164 | 145.54489 | 1701 ft | 133 kts | 109° |
| 2026-04-17 09:33 | -38.06376 | 145.55646 | 1699 ft | 134 kts | 109° |
| 2026-04-17 09:33 | -38.06588 | 145.56793 | 1831 ft | 134 kts | 109° |
| 2026-04-17 09:33 | -38.06795 | 145.57910 | 2037 ft | 121 kts | 109° |
| 2026-04-17 09:34 | -38.07002 | 145.58835 | 2210 ft | 101 kts | 115° |
| 2026-04-17 09:34 | -38.07192 | 145.59662 | 2371 ft | 97 kts | 116° |
| 2026-04-17 09:34 | -38.07390 | 145.60490 | 2549 ft | 98 kts | 116° |
| 2026-04-17 09:34 | -38.07592 | 145.61322 | 2724 ft | 99 kts | 115° |
| 2026-04-17 09:35 | -38.07793 | 145.62163 | 2902 ft | 99 kts | 116° |
| 2026-04-17 09:35 | -38.07990 | 145.63002 | 3081 ft | 99 kts | 117° |
| 2026-04-17 09:35 | -38.08191 | 145.63847 | 3261 ft | 99 kts | 117° |
| 2026-04-17 09:35 | -38.08395 | 145.64694 | 3379 ft | 107 kts | 120° |
| 2026-04-17 09:36 | -38.08654 | 145.65701 | 3445 ft | 127 kts | 115° |
| 2026-04-17 09:36 | -38.08920 | 145.66797 | 3497 ft | 131 kts | 113° |
| 2026-04-17 09:36 | -38.09185 | 145.67896 | 3514 ft | 129 kts | 114° |
| 2026-04-17 09:36 | -38.09448 | 145.68983 | 3521 ft | 129 kts | 114° |
| 2026-04-17 09:37 | -38.09710 | 145.70075 | 3522 ft | 129 kts | 114° |
| 2026-04-17 09:37 | -38.09974 | 145.71159 | 3524 ft | 129 kts | 114° |
| 2026-04-17 09:37 | -38.10216 | 145.72273 | 3523 ft | 131 kts | 112° |
| 2026-04-17 09:37 | -38.10474 | 145.73379 | 3523 ft | 130 kts | 114° |
| 2026-04-17 09:38 | -38.10744 | 145.74484 | 3522 ft | 130 kts | 114° |
| 2026-04-17 09:38 | -38.11006 | 145.75589 | 3522 ft | 130 kts | 113° |
| 2026-04-17 09:38 | -38.11270 | 145.76683 | 3523 ft | 131 kts | 113° |
| 2026-04-17 09:38 | -38.11536 | 145.77797 | 3522 ft | 131 kts | 113° |
| 2026-04-17 09:39 | -38.11804 | 145.78908 | 3522 ft | 130 kts | 113° |
| 2026-04-17 09:39 | -38.12064 | 145.80003 | 3521 ft | 130 kts | 114° |
| 2026-04-17 09:39 | -38.12328 | 145.81108 | 3520 ft | 131 kts | 114° |
| 2026-04-17 09:39 | -38.12591 | 145.82217 | 3519 ft | 131 kts | 114° |
| 2026-04-17 09:40 | -38.12856 | 145.83333 | 3518 ft | 131 kts | 114° |
| 2026-04-17 09:40 | -38.13122 | 145.84447 | 3519 ft | 132 kts | 114° |
| 2026-04-17 09:40 | -38.13338 | 145.85582 | 3518 ft | 133 kts | 107° |
| 2026-04-17 09:40 | -38.13483 | 145.86742 | 3516 ft | 133 kts | 105° |
| 2026-04-17 09:41 | -38.13629 | 145.87898 | 3517 ft | 132 kts | 105° |
| 2026-04-17 09:41 | -38.13777 | 145.89049 | 3517 ft | 132 kts | 105° |
| 2026-04-17 09:41 | -38.13925 | 145.90216 | 3518 ft | 133 kts | 105° |
| 2026-04-17 09:41 | -38.14072 | 145.91373 | 3518 ft | 133 kts | 105° |
| 2026-04-17 09:42 | -38.14220 | 145.92535 | 3517 ft | 133 kts | 105° |
| 2026-04-17 09:42 | -38.14366 | 145.93697 | 3514 ft | 133 kts | 105° |
| 2026-04-17 09:42 | -38.14514 | 145.94861 | 3513 ft | 133 kts | 105° |
| 2026-04-17 09:42 | -38.14662 | 145.96036 | 3513 ft | 133 kts | 105° |
| 2026-04-17 09:43 | -38.14807 | 145.97203 | 3511 ft | 134 kts | 105° |
| 2026-04-17 09:43 | -38.14951 | 145.98370 | 3511 ft | 134 kts | 105° |
| 2026-04-17 09:43 | -38.15098 | 145.99547 | 3512 ft | 135 kts | 105° |
| 2026-04-17 09:43 | -38.15247 | 146.00731 | 3513 ft | 134 kts | 105° |
| 2026-04-17 09:44 | -38.15390 | 146.01898 | 3510 ft | 134 kts | 106° |
| 2026-04-17 09:44 | -38.15535 | 146.03062 | 3513 ft | 134 kts | 106° |
| 2026-04-17 09:44 | -38.15685 | 146.04239 | 3513 ft | 133 kts | 106° |
| 2026-04-17 09:44 | -38.15832 | 146.05400 | 3513 ft | 133 kts | 105° |
| 2026-04-17 09:45 | -38.15980 | 146.06575 | 3513 ft | 133 kts | 105° |
| 2026-04-17 09:45 | -38.16126 | 146.07733 | 3514 ft | 133 kts | 105° |
| 2026-04-17 09:45 | -38.16272 | 146.08884 | 3513 ft | 133 kts | 105° |
| 2026-04-17 09:45 | -38.16414 | 146.10062 | 3509 ft | 134 kts | 105° |
| 2026-04-17 09:46 | -38.16558 | 146.11234 | 3508 ft | 135 kts | 106° |
| 2026-04-17 09:46 | -38.16704 | 146.12419 | 3509 ft | 135 kts | 105° |
| 2026-04-17 09:46 | -38.16853 | 146.13591 | 3513 ft | 135 kts | 106° |
| 2026-04-17 09:46 | -38.16999 | 146.14778 | 3517 ft | 134 kts | 105° |
| 2026-04-17 09:47 | -38.17146 | 146.15944 | 3519 ft | 134 kts | 105° |
| 2026-04-17 09:47 | -38.17289 | 146.17131 | 3518 ft | 135 kts | 105° |
| 2026-04-17 09:47 | -38.17432 | 146.18308 | 3518 ft | 136 kts | 105° |
| 2026-04-17 09:47 | -38.17582 | 146.19504 | 3520 ft | 136 kts | 106° |
| 2026-04-17 09:48 | -38.17724 | 146.20683 | 3520 ft | 136 kts | 106° |
| 2026-04-17 09:48 | -38.17871 | 146.21863 | 3519 ft | 135 kts | 107° |
| 2026-04-17 09:48 | -38.18016 | 146.23041 | 3517 ft | 135 kts | 106° |
| 2026-04-17 09:48 | -38.18166 | 146.24231 | 3515 ft | 135 kts | 106° |
| 2026-04-17 09:49 | -38.18309 | 146.25403 | 3515 ft | 135 kts | 106° |
| 2026-04-17 09:49 | -38.18456 | 146.26601 | 3514 ft | 136 kts | 107° |
| 2026-04-17 09:49 | -38.18606 | 146.27792 | 3494 ft | 142 kts | 109° |
| 2026-04-17 09:49 | -38.18775 | 146.29126 | 3515 ft | 161 kts | 104° |
| 2026-04-17 09:50 | -38.18952 | 146.30557 | 3516 ft | 167 kts | 104° |
| 2026-04-17 09:50 | -38.19135 | 146.32040 | 3520 ft | 169 kts | 104° |
| 2026-04-17 09:50 | -38.19317 | 146.33511 | 3519 ft | 169 kts | 104° |
| 2026-04-17 09:50 | -38.19495 | 146.34982 | 3517 ft | 169 kts | 104° |
| 2026-04-17 09:51 | -38.19680 | 146.36462 | 3516 ft | 169 kts | 105° |
| 2026-04-17 09:51 | -38.19857 | 146.37952 | 3511 ft | 169 kts | 105° |
| 2026-04-17 09:51 | -38.20033 | 146.39416 | 3510 ft | 170 kts | 105° |
| 2026-04-17 09:51 | -38.20216 | 146.40909 | 3512 ft | 170 kts | 105° |
| 2026-04-17 09:52 | -38.20396 | 146.42403 | 3511 ft | 170 kts | 105° |
| 2026-04-17 09:52 | -38.20581 | 146.43893 | 3513 ft | 169 kts | 105° |
| 2026-04-17 09:52 | -38.20760 | 146.45373 | 3513 ft | 169 kts | 104° |
| 2026-04-17 09:52 | -38.20929 | 146.46846 | 3512 ft | 170 kts | 102° |
| 2026-04-17 09:53 | -38.20893 | 146.48378 | 3517 ft | 174 kts | 86° |
| 2026-04-17 09:53 | -38.20737 | 146.49892 | 3515 ft | 173 kts | 89° |
| 2026-04-17 09:53 | -38.20626 | 146.51419 | 3516 ft | 173 kts | 89° |
| 2026-04-17 09:53 | -38.20495 | 146.52946 | 3514 ft | 173 kts | 88° |
| 2026-04-17 09:54 | -38.20370 | 146.54469 | 3511 ft | 174 kts | 89° |
| 2026-04-17 09:54 | -38.20243 | 146.56017 | 3511 ft | 174 kts | 88° |
| 2026-04-17 09:54 | -38.20111 | 146.57494 | 3537 ft | 159 kts | 87° |
| 2026-04-17 09:54 | -38.20001 | 146.58807 | 3508 ft | 144 kts | 90° |
| 2026-04-17 09:55 | -38.19894 | 146.60053 | 3500 ft | 141 kts | 90° |
| 2026-04-17 09:55 | -38.19787 | 146.61305 | 3502 ft | 142 kts | 91° |
| 2026-04-17 09:55 | -38.19681 | 146.62553 | 3506 ft | 143 kts | 90° |
| 2026-04-17 09:55 | -38.19576 | 146.63812 | 3505 ft | 142 kts | 90° |
| 2026-04-17 09:56 | -38.19469 | 146.65065 | 3505 ft | 142 kts | 89° |
| 2026-04-17 09:56 | -38.19356 | 146.66318 | 3510 ft | 143 kts | 89° |
| 2026-04-17 09:56 | -38.19179 | 146.67572 | 3511 ft | 144 kts | 78° |
| 2026-04-17 09:56 | -38.18803 | 146.68761 | 3509 ft | 145 kts | 68° |
| 2026-04-17 09:57 | -38.18380 | 146.69939 | 3507 ft | 146 kts | 69° |
| 2026-04-17 09:57 | -38.17977 | 146.71114 | 3504 ft | 146 kts | 69° |
| 2026-04-17 09:57 | -38.17564 | 146.72311 | 3502 ft | 147 kts | 69° |
| 2026-04-17 09:57 | -38.17157 | 146.73492 | 3503 ft | 147 kts | 69° |
| 2026-04-17 09:58 | -38.16745 | 146.74689 | 3506 ft | 146 kts | 69° |
| 2026-04-17 09:58 | -38.16338 | 146.75862 | 3506 ft | 145 kts | 69° |
| 2026-04-17 09:58 | -38.15932 | 146.77029 | 3507 ft | 145 kts | 69° |
| 2026-04-17 09:58 | -38.15519 | 146.78226 | 3508 ft | 146 kts | 69° |
| 2026-04-17 09:59 | -38.15112 | 146.79399 | 3510 ft | 146 kts | 69° |
| 2026-04-17 09:59 | -38.14702 | 146.80574 | 3510 ft | 146 kts | 69° |
| 2026-04-17 09:59 | -38.14288 | 146.81763 | 3510 ft | 146 kts | 69° |
| 2026-04-17 09:59 | -38.13881 | 146.82932 | 3508 ft | 146 kts | 69° |
| 2026-04-17 10:00 | -38.13468 | 146.84120 | 3506 ft | 147 kts | 69° |
| 2026-04-17 10:00 | -38.13055 | 146.85307 | 3506 ft | 148 kts | 69° |
| 2026-04-17 10:00 | -38.12637 | 146.86514 | 3510 ft | 147 kts | 69° |
| 2026-04-17 10:00 | -38.12228 | 146.87692 | 3511 ft | 146 kts | 69° |
| 2026-04-17 10:01 | -38.11930 | 146.88925 | 3514 ft | 142 kts | 90° |
| 2026-04-17 10:01 | -38.11882 | 146.90167 | 3511 ft | 142 kts | 92° |
| 2026-04-17 10:01 | -38.11788 | 146.91422 | 3506 ft | 144 kts | 89° |
| 2026-04-17 10:01 | -38.11695 | 146.92549 | 3501 ft | 145 kts | 90° |
| 2026-04-17 10:02 | -38.11597 | 146.93832 | 3505 ft | 145 kts | 90° |
| 2026-04-17 10:02 | -38.11499 | 146.95094 | 3507 ft | 144 kts | 90° |
| 2026-04-17 10:02 | -38.11398 | 146.96359 | 3508 ft | 144 kts | 90° |
| 2026-04-17 10:02 | -38.11299 | 146.97623 | 3504 ft | 144 kts | 90° |
| 2026-04-17 10:03 | -38.11195 | 146.98897 | 3442 ft | 143 kts | 87° |
| 2026-04-17 10:03 | -38.11061 | 147.00133 | 3202 ft | 137 kts | 88° |
| 2026-04-17 10:03 | -38.10900 | 147.01375 | 2583 ft | 160 kts | 83° |
| 2026-04-17 10:03 | -38.10685 | 147.02849 | 1703 ft | 178 kts | 80° |
| 2026-04-17 10:04 | -38.10464 | 147.04338 | 1271 ft | 162 kts | 84° |
| 2026-04-17 10:04 | -38.10334 | 147.05661 | 1087 ft | 149 kts | 85° |
| 2026-04-17 10:04 | -38.10194 | 147.06941 | 893 ft | 142 kts | 83° |
| 2026-04-17 10:04 | -38.10053 | 147.08105 | 639 ft | 129 kts | 81° |
| 2026-04-17 10:05 | -38.09906 | 147.09168 | 384 ft | 111 kts | 80° |
| 2026-04-17 10:05 | -38.09775 | 147.10048 | 387 ft | 101 kts | 81° |
| 2026-04-17 10:05 | -38.09694 | 147.11018 | 309 ft | 123 kts | 86° |
| 2026-04-17 10:05 | -38.09629 | 147.12108 | 160 ft | 121 kts | 84° |
| 2026-04-17 10:06 | -38.09655 | 147.12874 | 296 ft | 46 kts | 123° |
| 2026-04-17 10:06 | -38.09889 | 147.12926 | 292 ft | 24 kts | 282° |
| 2026-04-17 10:06 | -38.09789 | 147.12807 | 163 ft | 25 kts | 49° |
| 2026-04-17 10:06 | -38.09752 | 147.12882 | 29 ft | 1 kts | 91° |